Time;durP1;ratioP1;P1;durP2;ratioP2;P2;SDS_P1;SDS_P2;PMS_P1;PMS_P2;Temp;Humidity;BMP_temperature;BMP_pressure;BME280_temperature;BME280_humidity;BME280_pressure;Samples;Min_cycle;Max_cycle;Signal;HPM_P1;HPM_P2
2021/07/24 00:01:58;;;;;;;3.43;2.96;;;;;;;21.67;70.14;99794.55;;;;-58
2021/07/24 00:04:58;;;;;;;3.16;2.83;;;;;;;21.67;70.12;99793.66;;;;-59
2021/07/24 00:07:58;;;;;;;3.21;2.84;;;;;;;21.65;70.15;99786.41;;;;-58
2021/07/24 00:10:58;;;;;;;3.23;2.93;;;;;;;21.66;70.11;99786.63;;;;-59
2021/07/24 00:13:58;;;;;;;3.30;2.88;;;;;;;21.66;70.17;99786.06;;;;-58
2021/07/24 00:16:58;;;;;;;3.99;2.79;;;;;;;21.65;70.20;99780.63;;;;-58
2021/07/24 00:19:58;;;;;;;4.21;3.09;;;;;;;21.66;70.15;99781.75;;;;-59
2021/07/24 00:22:58;;;;;;;3.19;2.89;;;;;;;21.65;70.17;99780.06;;;;-59
2021/07/24 00:25:58;;;;;;;3.86;2.75;;;;;;;21.64;70.16;99776.00;;;;-58
2021/07/24 00:28:58;;;;;;;4.95;3.04;;;;;;;21.64;70.18;99768.66;;;;-58
2021/07/24 00:31:58;;;;;;;3.71;2.86;;;;;;;21.63;70.17;99767.52;;;;-58
2021/07/24 00:34:58;;;;;;;2.98;2.75;;;;;;;21.63;70.15;99763.28;;;;-59
2021/07/24 00:37:58;;;;;;;3.25;2.83;;;;;;;21.63;70.17;99763.78;;;;-58
2021/07/24 00:40:58;;;;;;;4.65;3.08;;;;;;;21.63;70.19;99763.30;;;;-58
2021/07/24 00:43:58;;;;;;;4.41;2.96;;;;;;;21.62;70.16;99755.72;;;;-58
2021/07/24 00:46:58;;;;;;;3.53;2.83;;;;;;;21.61;70.14;99752.70;;;;-58
2021/07/24 00:49:58;;;;;;;3.39;2.83;;;;;;;21.61;70.16;99750.02;;;;-58
2021/07/24 00:53:10;;;;;;;3.35;2.81;;;;;;;21.61;70.20;99744.50;;;;-59
2021/07/24 00:55:58;;;;;;;3.25;2.76;;;;;;;21.60;70.15;99740.40;;;;-58
2021/07/24 00:58:58;;;;;;;3.32;2.67;;;;;;;21.60;70.22;99738.55;;;;-59
2021/07/24 01:01:58;;;;;;;3.15;2.71;;;;;;;21.59;70.18;99744.16;;;;-59
2021/07/24 01:04:58;;;;;;;3.29;2.93;;;;;;;21.60;70.21;99746.20;;;;-58
2021/07/24 01:07:58;;;;;;;3.45;2.89;;;;;;;21.59;70.18;99741.58;;;;-58
2021/07/24 01:10:58;;;;;;;3.65;2.77;;;;;;;21.58;70.16;99740.21;;;;-58
2021/07/24 01:13:58;;;;;;;3.33;2.68;;;;;;;21.58;70.17;99745.34;;;;-58
2021/07/24 01:16:58;;;;;;;4.30;2.80;;;;;;;21.58;70.19;99749.09;;;;-58
2021/07/24 01:19:58;;;;;;;3.07;2.77;;;;;;;21.58;70.19;99749.50;;;;-58
2021/07/24 01:22:58;;;;;;;3.68;2.83;;;;;;;21.57;70.19;99750.72;;;;-58
2021/07/24 01:25:58;;;;;;;3.19;2.89;;;;;;;21.57;70.17;99749.99;;;;-58
2021/07/24 01:28:58;;;;;;;3.31;2.81;;;;;;;21.57;70.18;99747.14;;;;-60
2021/07/24 01:31:58;;;;;;;3.43;2.88;;;;;;;21.57;70.20;99754.57;;;;-58
2021/07/24 01:34:58;;;;;;;3.51;2.92;;;;;;;21.56;70.16;99752.05;;;;-59
2021/07/24 01:37:58;;;;;;;3.08;2.79;;;;;;;21.56;70.19;99750.84;;;;-58
2021/07/24 01:40:58;;;;;;;3.13;2.80;;;;;;;21.56;70.22;99750.19;;;;-58
2021/07/24 01:43:58;;;;;;;3.13;2.83;;;;;;;21.56;70.18;99753.45;;;;-58
2021/07/24 01:46:58;;;;;;;2.85;2.59;;;;;;;21.56;70.20;99754.41;;;;-59
2021/07/24 01:52:58;;;;;;;3.11;2.80;;;;;;;21.55;70.21;99749.20;;;;-59
2021/07/24 01:55:58;;;;;;;3.34;2.92;;;;;;;21.55;70.22;99748.23;;;;-58
2021/07/24 01:58:58;;;;;;;3.35;2.84;;;;;;;21.55;70.18;99750.75;;;;-58
2021/07/24 02:01:58;;;;;;;3.31;2.67;;;;;;;21.55;70.21;99753.37;;;;-58
2021/07/24 02:04:58;;;;;;;3.14;2.84;;;;;;;21.54;70.21;99749.39;;;;-58
2021/07/24 02:07:58;;;;;;;3.17;2.87;;;;;;;21.54;70.22;99747.82;;;;-58
2021/07/24 02:10:58;;;;;;;3.35;2.71;;;;;;;21.54;70.20;99748.00;;;;-58
2021/07/24 02:13:58;;;;;;;2.95;2.67;;;;;;;21.53;70.21;99747.35;;;;-58
2021/07/24 02:16:58;;;;;;;3.15;2.79;;;;;;;21.53;70.20;99745.24;;;;-59
2021/07/24 02:19:58;;;;;;;3.02;2.73;;;;;;;21.53;70.24;99748.17;;;;-58
2021/07/24 02:22:58;;;;;;;3.20;2.77;;;;;;;21.52;70.18;99752.20;;;;-58
2021/07/24 02:25:58;;;;;;;3.31;2.67;;;;;;;21.53;70.22;99751.11;;;;-59
2021/07/24 02:28:58;;;;;;;2.95;2.66;;;;;;;21.53;70.23;99747.13;;;;-58
2021/07/24 02:31:58;;;;;;;3.05;2.75;;;;;;;21.52;70.19;99739.55;;;;-58
2021/07/24 02:34:58;;;;;;;4.54;2.95;;;;;;;21.52;70.18;99738.41;;;;-58
2021/07/24 02:37:58;;;;;;;4.07;2.71;;;;;;;21.52;70.28;99737.52;;;;-58
2021/07/24 02:40:58;;;;;;;3.15;2.85;;;;;;;21.52;70.23;99734.31;;;;-58
2021/07/24 02:43:58;;;;;;;3.23;2.89;;;;;;;21.51;70.18;99734.49;;;;-58
2021/07/24 02:46:58;;;;;;;2.91;2.61;;;;;;;21.51;70.19;99734.91;;;;-59
2021/07/24 02:49:58;;;;;;;2.91;2.66;;;;;;;21.51;70.24;99729.88;;;;-58
2021/07/24 02:52:58;;;;;;;3.30;2.61;;;;;;;21.51;70.24;99733.37;;;;-58
2021/07/24 02:55:58;;;;;;;3.16;2.77;;;;;;;21.51;70.21;99730.69;;;;-58
2021/07/24 02:58:58;;;;;;;3.18;2.83;;;;;;;21.50;70.25;99724.02;;;;-58
2021/07/24 03:01:58;;;;;;;2.80;2.59;;;;;;;21.50;70.19;99729.45;;;;-58
2021/07/24 03:04:58;;;;;;;3.83;2.90;;;;;;;21.50;70.23;99732.73;;;;-59
2021/07/24 03:07:58;;;;;;;3.18;2.71;;;;;;;21.49;70.24;99744.22;;;;-58
2021/07/24 03:10:58;;;;;;;3.09;2.79;;;;;;;21.49;70.25;99747.16;;;;-58
2021/07/24 03:13:58;;;;;;;3.21;2.83;;;;;;;21.49;70.27;99734.69;;;;-58
2021/07/24 03:16:58;;;;;;;3.73;2.94;;;;;;;21.49;70.26;99725.16;;;;-58
2021/07/24 03:19:58;;;;;;;2.86;2.59;;;;;;;21.48;70.22;99715.39;;;;-58
2021/07/24 03:23:00;;;;;;;2.57;2.37;;;;;;;21.48;70.22;99716.78;;;;-58
2021/07/24 03:25:58;;;;;;;3.20;2.87;;;;;;;21.48;70.22;99730.64;;;;-58
2021/07/24 03:28:58;;;;;;;2.91;2.63;;;;;;;21.47;70.23;99715.38;;;;-58
2021/07/24 03:31:58;;;;;;;3.26;2.83;;;;;;;21.47;70.26;99693.05;;;;-59
2021/07/24 03:34:58;;;;;;;2.77;2.57;;;;;;;21.47;70.25;99714.66;;;;-58
2021/07/24 03:37:57;;;;;;;3.21;2.89;;;;;;;21.47;70.26;99727.87;;;;-58
2021/07/24 03:40:58;;;;;;;3.05;2.71;;;;;;;21.47;70.27;99732.52;;;;-58
2021/07/24 03:43:58;;;;;;;2.88;2.61;;;;;;;21.47;70.23;99734.23;;;;-58
2021/07/24 03:46:58;;;;;;;2.60;2.40;;;;;;;21.46;70.25;99745.74;;;;-58
2021/07/24 03:49:58;;;;;;;2.93;2.62;;;;;;;21.46;70.24;99755.70;;;;-58
2021/07/24 03:52:58;;;;;;;3.76;2.80;;;;;;;21.47;70.25;99768.80;;;;-58
2021/07/24 03:55:58;;;;;;;2.97;2.63;;;;;;;21.46;70.24;99779.67;;;;-59
2021/07/24 03:58:58;;;;;;;2.97;2.56;;;;;;;21.44;70.25;99792.39;;;;-58
2021/07/24 04:01:58;;;;;;;2.96;2.71;;;;;;;21.45;70.29;99790.83;;;;-58
2021/07/24 04:04:58;;;;;;;2.84;2.59;;;;;;;21.45;70.31;99788.88;;;;-58
2021/07/24 04:07:58;;;;;;;2.69;2.49;;;;;;;21.45;70.28;99789.77;;;;-58
2021/07/24 04:10:58;;;;;;;2.87;2.59;;;;;;;21.45;70.29;99799.22;;;;-58
2021/07/24 04:13:58;;;;;;;3.07;2.77;;;;;;;21.44;70.31;99797.79;;;;-58
2021/07/24 04:16:58;;;;;;;2.81;2.61;;;;;;;21.44;70.30;99799.82;;;;-58
2021/07/24 04:19:58;;;;;;;3.06;2.76;;;;;;;21.44;70.31;99794.77;;;;-58
2021/07/24 04:22:58;;;;;;;3.09;2.79;;;;;;;21.44;70.29;99793.79;;;;-58
2021/07/24 04:25:58;;;;;;;3.53;2.70;;;;;;;21.43;70.27;99796.47;;;;-59
2021/07/24 04:28:59;;;;;;;2.90;2.70;;;;;;;21.43;70.28;99806.91;;;;-58
2021/07/24 04:31:58;;;;;;;2.98;2.68;;;;;;;21.43;70.28;99810.48;;;;-58
2021/07/24 04:34:58;;;;;;;2.68;2.48;;;;;;;21.43;70.31;99822.23;;;;-58
2021/07/24 04:37:58;;;;;;;2.75;2.55;;;;;;;21.42;70.26;99822.91;;;;-58
2021/07/24 04:40:58;;;;;;;2.83;2.59;;;;;;;21.43;70.33;99824.77;;;;-58
2021/07/24 04:43:58;;;;;;;2.89;2.61;;;;;;;21.43;70.32;99820.52;;;;-58
2021/07/24 04:46:57;;;;;;;2.82;2.56;;;;;;;21.43;70.28;99825.59;;;;-58
2021/07/24 04:49:58;;;;;;;2.92;2.62;;;;;;;21.42;70.29;99816.47;;;;-58
2021/07/24 04:52:58;;;;;;;2.77;2.53;;;;;;;21.42;70.33;99797.88;;;;-58
2021/07/24 04:55:58;;;;;;;2.97;2.70;;;;;;;21.42;70.32;99787.52;;;;-58
2021/07/24 04:58:58;;;;;;;2.91;2.56;;;;;;;21.41;70.30;99778.55;;;;-58
2021/07/24 05:01:58;;;;;;;2.72;2.51;;;;;;;21.41;70.33;99777.39;;;;-58
2021/07/24 05:04:57;;;;;;;3.47;2.81;;;;;;;21.41;70.32;99770.72;;;;-58
2021/07/24 05:07:58;;;;;;;2.78;2.58;;;;;;;21.41;70.32;99785.79;;;;-58
2021/07/24 05:10:58;;;;;;;2.88;2.60;;;;;;;21.41;70.29;99788.81;;;;-59
2021/07/24 05:13:58;;;;;;;3.01;2.71;;;;;;;21.40;70.31;99787.20;;;;-58
2021/07/24 05:16:58;;;;;;;2.84;2.61;;;;;;;21.39;70.29;99783.06;;;;-58
2021/07/24 05:19:58;;;;;;;2.99;2.69;;;;;;;21.40;70.30;99786.05;;;;-59
2021/07/24 05:22:57;;;;;;;2.79;2.59;;;;;;;21.38;70.33;99782.08;;;;-62
2021/07/24 05:25:58;;;;;;;2.99;2.66;;;;;;;21.39;70.36;99780.02;;;;-61
2021/07/24 05:28:58;;;;;;;2.87;2.67;;;;;;;21.39;70.34;99770.98;;;;-61
2021/07/24 05:31:58;;;;;;;3.10;2.80;;;;;;;21.39;70.35;99784.04;;;;-61
2021/07/24 05:34:58;;;;;;;3.32;2.67;;;;;;;21.39;70.35;99786.30;;;;-57
2021/07/24 05:37:57;;;;;;;2.63;2.43;;;;;;;21.39;70.33;99807.52;;;;-59
2021/07/24 05:40:58;;;;;;;2.79;2.59;;;;;;;21.39;70.36;99799.75;;;;-59
2021/07/24 05:43:58;;;;;;;2.85;2.63;;;;;;;21.38;70.36;99795.86;;;;-57
2021/07/24 05:47:00;;;;;;;2.97;2.67;;;;;;;21.39;70.38;99802.61;;;;-58
2021/07/24 05:49:58;;;;;;;3.41;2.69;;;;;;;21.39;70.34;99818.02;;;;-59
2021/07/24 05:52:58;;;;;;;2.97;2.67;;;;;;;21.38;70.32;99834.41;;;;-59
2021/07/24 05:55:57;;;;;;;3.25;2.71;;;;;;;21.39;70.35;99828.13;;;;-58
2021/07/24 05:58:58;;;;;;;2.57;2.37;;;;;;;21.38;70.37;99832.55;;;;-57
2021/07/24 06:01:58;;;;;;;2.76;2.53;;;;;;;21.38;70.36;99843.79;;;;-59
2021/07/24 06:04:57;;;;;;;2.55;2.35;;;;;;;21.38;70.34;99848.37;;;;-59
2021/07/24 06:07:58;;;;;;;2.91;2.60;;;;;;;21.38;70.31;99846.72;;;;-59
2021/07/24 06:10:58;;;;;;;2.62;2.34;;;;;;;21.37;70.37;99842.48;;;;-59
2021/07/24 06:13:57;;;;;;;2.97;2.67;;;;;;;21.38;70.39;99852.44;;;;-58
2021/07/24 06:16:58;;;;;;;2.89;2.49;;;;;;;21.38;70.33;99863.84;;;;-58
2021/07/24 06:19:58;;;;;;;2.91;2.62;;;;;;;21.38;70.33;99874.13;;;;-59
2021/07/24 06:22:58;;;;;;;2.86;2.50;;;;;;;21.38;70.39;99867.67;;;;-59
2021/07/24 06:25:58;;;;;;;2.49;2.29;;;;;;;21.37;70.36;99874.11;;;;-62
2021/07/24 06:28:58;;;;;;;2.61;2.41;;;;;;;21.37;70.36;99884.87;;;;-61
2021/07/24 06:31:57;;;;;;;2.49;2.29;;;;;;;21.37;70.32;99896.53;;;;-61
2021/07/24 06:34:58;;;;;;;2.74;2.41;;;;;;;21.37;70.36;99907.63;;;;-61
2021/07/24 06:37:58;;;;;;;2.95;2.65;;;;;;;21.37;70.37;99906.33;;;;-62
2021/07/24 06:40:58;;;;;;;2.73;2.49;;;;;;;21.37;70.34;99914.05;;;;-62
2021/07/24 06:43:58;;;;;;;3.00;2.53;;;;;;;21.37;70.34;99915.85;;;;-61
2021/07/24 06:46:58;;;;;;;2.60;2.40;;;;;;;21.36;70.38;99913.58;;;;-61
2021/07/24 06:49:57;;;;;;;2.63;2.43;;;;;;;21.37;70.32;99917.64;;;;-61
2021/07/24 06:52:58;;;;;;;3.18;2.54;;;;;;;21.36;70.33;99914.23;;;;-62
2021/07/24 06:55:57;;;;;;;2.65;2.45;;;;;;;21.36;70.38;99894.36;;;;-61
2021/07/24 06:58:58;;;;;;;2.66;2.43;;;;;;;21.36;70.33;99889.63;;;;-61
2021/07/24 07:01:59;;;;;;;2.63;2.43;;;;;;;21.36;70.34;99874.80;;;;-61
2021/07/24 07:04:57;;;;;;;2.61;2.41;;;;;;;21.35;70.34;99873.42;;;;-62
2021/07/24 07:07:58;;;;;;;2.73;2.44;;;;;;;21.35;70.37;99861.42;;;;-61
2021/07/24 07:10:58;;;;;;;2.95;2.69;;;;;;;21.36;70.39;99859.15;;;;-61
2021/07/24 07:13:57;;;;;;;2.79;2.49;;;;;;;21.35;70.38;99850.59;;;;-61
2021/07/24 07:16:58;;;;;;;2.59;2.39;;;;;;;21.35;70.34;99847.57;;;;-62
2021/07/24 07:19:58;;;;;;;2.99;2.51;;;;;;;21.34;70.36;99844.08;;;;-62
2021/07/24 07:22:57;;;;;;;2.72;2.47;;;;;;;21.35;70.36;99827.67;;;;-62
2021/07/24 07:25:58;;;;;;;2.87;2.59;;;;;;;21.34;70.36;99832.34;;;;-61
2021/07/24 07:29:02;;;;;;;2.83;2.60;;;;;;;21.34;70.34;99826.63;;;;-62
2021/07/24 07:31:58;;;;;;;2.71;2.51;;;;;;;21.35;70.38;99817.16;;;;-63
2021/07/24 07:34:58;;;;;;;3.24;2.57;;;;;;;21.35;70.37;99832.58;;;;-61
2021/07/24 07:37:59;;;;;;;2.88;2.68;;;;;;;21.34;70.37;99823.30;;;;-61
2021/07/24 07:40:58;;;;;;;3.00;2.71;;;;;;;21.34;70.39;99825.91;;;;-62
2021/07/24 07:43:58;;;;;;;3.03;2.76;;;;;;;21.35;70.40;99825.97;;;;-62
2021/07/24 07:46:57;;;;;;;2.59;2.39;;;;;;;21.34;70.36;99837.39;;;;-61
2021/07/24 07:49:58;;;;;;;2.94;2.62;;;;;;;21.35;70.36;99835.83;;;;-61
2021/07/24 07:52:58;;;;;;;2.92;2.71;;;;;;;21.34;70.35;99826.06;;;;-61
2021/07/24 07:55:57;;;;;;;2.83;2.57;;;;;;;21.34;70.40;99827.61;;;;-62
2021/07/24 07:58:57;;;;;;;2.67;2.47;;;;;;;21.34;70.40;99822.32;;;;-62
2021/07/24 08:01:58;;;;;;;7.69;2.56;;;;;;;21.37;70.66;99837.03;;;;-62
2021/07/24 08:04:57;;;;;;;10.37;4.46;;;;;;;21.37;71.50;99835.64;;;;-62
2021/07/24 08:07:58;;;;;;;10.45;7.35;;;;;;;21.39;72.96;99833.51;;;;-62
2021/07/24 08:10:58;;;;;;;6.39;4.95;;;;;;;21.39;72.08;99843.77;;;;-64
2021/07/24 08:13:57;;;;;;;7.39;5.87;;;;;;;21.39;72.03;99861.30;;;;-62
2021/07/24 08:16:57;;;;;;;9.37;5.87;;;;;;;21.39;71.96;99849.55;;;;-63
2021/07/24 08:19:58;;;;;;;7.69;5.31;;;;;;;21.39;71.85;99845.01;;;;-62
2021/07/24 08:22:57;;;;;;;5.97;5.29;;;;;;;21.39;71.82;99838.98;;;;-63
2021/07/24 08:25:58;;;;;;;6.02;5.42;;;;;;;21.40;71.69;99844.42;;;;-64
2021/07/24 08:28:58;;;;;;;7.29;5.39;;;;;;;21.40;71.67;99836.92;;;;-63
2021/07/24 08:31:58;;;;;;;8.83;4.93;;;;;;;21.41;71.59;99825.66;;;;-62
2021/07/24 08:34:58;;;;;;;6.53;5.37;;;;;;;21.41;71.62;99821.74;;;;-61
2021/07/24 08:37:57;;;;;;;6.26;5.05;;;;;;;21.43;71.67;99824.67;;;;-59
2021/07/24 08:40:58;;;;;;;6.38;5.08;;;;;;;21.46;71.64;99818.52;;;;-59
2021/07/24 08:43:58;;;;;;;6.23;5.26;;;;;;;21.47;71.56;99799.02;;;;-57
2021/07/24 08:46:57;;;;;;;7.11;4.80;;;;;;;21.49;71.58;99800.47;;;;-58
2021/07/24 08:49:58;;;;;;;6.20;4.97;;;;;;;21.51;71.65;99817.34;;;;-59
2021/07/24 08:52:58;;;;;;;5.89;5.29;;;;;;;21.53;71.63;99798.89;;;;-54
2021/07/24 08:55:57;;;;;;;5.73;5.07;;;;;;;21.54;71.64;99794.95;;;;-56
2021/07/24 08:58:59;;;;;;;7.82;5.03;;;;;;;21.55;71.63;99793.47;;;;-54
2021/07/24 09:01:58;;;;;;;6.59;5.21;;;;;;;21.57;71.60;99789.45;;;;-57
2021/07/24 09:04:59;;;;;;;6.39;5.08;;;;;;;21.58;71.52;99793.19;;;;-57
2021/07/24 09:07:58;;;;;;;5.95;4.89;;;;;;;21.60;71.58;99795.20;;;;-63
2021/07/24 09:10:58;;;;;;;7.57;5.41;;;;;;;21.60;71.55;99797.58;;;;-50
2021/07/24 09:13:57;;;;;;;6.23;5.01;;;;;;;21.62;71.47;99804.55;;;;-58
2021/07/24 09:16:58;;;;;;;8.21;5.17;;;;;;;21.61;71.27;99806.20;;;;-58
2021/07/24 09:19:58;;;;;;;5.59;5.05;;;;;;;21.61;71.26;99812.16;;;;-58
2021/07/24 09:22:57;;;;;;;6.93;5.01;;;;;;;21.60;71.33;99816.98;;;;-58
2021/07/24 09:25:58;;;;;;;8.05;5.29;;;;;;;21.61;71.25;99816.25;;;;-58
2021/07/24 09:28:58;;;;;;;8.67;5.03;;;;;;;21.60;71.22;99821.86;;;;-57
2021/07/24 09:31:57;;;;;;;5.79;5.11;;;;;;;21.59;71.13;99823.02;;;;-58
2021/07/24 09:34:58;;;;;;;7.19;5.33;;;;;;;21.60;71.13;99823.08;;;;-58
2021/07/24 09:37:58;;;;;;;6.19;5.37;;;;;;;21.61;71.21;99823.80;;;;-59
2021/07/24 09:40:57;;;;;;;6.75;4.93;;;;;;;21.63;71.26;99821.01;;;;-51
2021/07/24 09:43:58;;;;;;;6.47;4.89;;;;;;;21.65;71.25;99825.23;;;;-51
2021/07/24 09:46:58;;;;;;;7.78;5.19;;;;;;;21.67;71.26;99827.57;;;;-53
2021/07/24 09:49:57;;;;;;;8.78;5.08;;;;;;;21.68;71.27;99827.29;;;;-52
2021/07/24 09:52:58;;;;;;;6.21;5.07;;;;;;;21.70;71.24;99827.12;;;;-51
2021/07/24 09:55:58;;;;;;;7.48;4.91;;;;;;;21.71;71.20;99816.59;;;;-60
2021/07/24 09:58:57;;;;;;;6.27;4.97;;;;;;;21.72;71.21;99802.06;;;;-58
2021/07/24 10:01:58;;;;;;;7.27;5.11;;;;;;;21.73;71.16;99814.37;;;;-60
2021/07/24 10:04:57;;;;;;;6.38;5.05;;;;;;;21.75;71.17;99822.50;;;;-51
2021/07/24 10:07:57;;;;;;;6.81;5.29;;;;;;;21.74;71.17;99817.19;;;;-53
2021/07/24 10:10:58;;;;;;;6.54;5.19;;;;;;;21.76;71.17;99811.47;;;;-53
2021/07/24 10:13:58;;;;;;;6.42;5.09;;;;;;;21.77;71.20;99816.36;;;;-57
2021/07/24 10:16:58;;;;;;;8.97;5.37;;;;;;;21.78;71.16;99814.62;;;;-57
2021/07/24 10:19:58;;;;;;;7.28;5.09;;;;;;;21.78;71.15;99810.44;;;;-47
2021/07/24 10:22:57;;;;;;;7.99;4.95;;;;;;;21.78;71.16;99802.22;;;;-57
2021/07/24 10:25:58;;;;;;;8.34;4.92;;;;;;;21.79;71.06;99796.83;;;;-56
2021/07/24 10:28:58;;;;;;;6.62;5.02;;;;;;;21.80;70.88;99790.95;;;;-52
2021/07/24 10:31:58;;;;;;;6.89;4.72;;;;;;;21.78;70.98;99789.89;;;;-51
2021/07/24 10:34:58;;;;;;;7.27;4.78;;;;;;;21.78;70.93;99790.88;;;;-51
2021/07/24 10:37:59;;;;;;;7.74;5.09;;;;;;;21.78;70.91;99783.14;;;;-51
2021/07/24 10:40:57;;;;;;;6.75;4.91;;;;;;;21.77;71.01;99775.41;;;;-54
2021/07/24 10:43:58;;;;;;;8.17;5.23;;;;;;;21.80;70.99;99764.84;;;;-59
2021/07/24 10:46:58;;;;;;;7.91;5.01;;;;;;;21.81;70.99;99770.03;;;;-51
2021/07/24 10:49:58;;;;;;;10.96;4.88;;;;;;;21.82;70.98;99767.58;;;;-56
2021/07/24 10:52:57;;;;;;;7.88;4.68;;;;;;;21.81;70.99;99768.09;;;;-52
2021/07/24 10:55:58;;;;;;;7.89;4.87;;;;;;;21.80;70.87;99766.30;;;;-51
2021/07/24 10:58:57;;;;;;;8.71;4.77;;;;;;;21.80;70.87;99755.86;;;;-55
2021/07/24 11:01:58;;;;;;;8.44;4.83;;;;;;;21.79;70.84;99745.69;;;;-55
2021/07/24 11:04:57;;;;;;;8.66;5.05;;;;;;;21.80;70.84;99738.66;;;;-55
2021/07/24 11:07:57;;;;;;;5.11;4.61;;;;;;;21.80;70.71;99738.82;;;;-55
2021/07/24 11:10:58;;;;;;;7.42;4.60;;;;;;;21.79;70.71;99735.90;;;;-51
2021/07/24 11:13:57;;;;;;;6.12;4.87;;;;;;;21.79;70.70;99736.06;;;;-51
2021/07/24 11:16:58;;;;;;;6.56;4.61;;;;;;;21.79;70.68;99737.78;;;;-55
2021/07/24 11:19:59;;;;;;;7.17;4.87;;;;;;;21.79;70.63;99753.20;;;;-61
2021/07/24 11:24:57;;;;;;;5.71;4.81;;;;;;;21.79;70.57;99749.20;;;;-60
2021/07/24 11:27:58;;;;;;;7.01;4.85;;;;;;;21.79;70.63;99744.23;;;;-61
2021/07/24 11:30:58;;;;;;;6.63;4.61;;;;;;;21.77;70.75;99745.88;;;;-48
2021/07/24 11:33:58;;;;;;;5.87;4.71;;;;;;;21.80;70.64;99739.63;;;;-48
2021/07/24 11:36:58;;;;;;;5.79;4.94;;;;;;;21.81;70.59;99746.73;;;;-48
2021/07/24 11:39:57;;;;;;;6.89;4.65;;;;;;;21.80;70.61;99748.12;;;;-48
2021/07/24 11:42:58;;;;;;;5.97;4.97;;;;;;;21.80;70.57;99740.20;;;;-48
2021/07/24 11:45:58;;;;;;;7.29;4.95;;;;;;;21.79;70.62;99730.77;;;;-48
2021/07/24 11:48:57;;;;;;;6.39;4.94;;;;;;;21.80;70.59;99719.48;;;;-48
2021/07/24 11:51:58;;;;;;;6.51;4.71;;;;;;;21.78;70.64;99714.55;;;;-57
2021/07/24 11:54:58;;;;;;;6.47;4.63;;;;;;;21.80;70.69;99710.77;;;;-49
2021/07/24 11:57:57;;;;;;;7.99;4.98;;;;;;;21.82;70.65;99710.48;;;;-50
2021/07/24 12:01:00;;;;;;;7.25;4.89;;;;;;;21.83;70.65;99706.41;;;;-50
2021/07/24 12:03:57;;;;;;;7.16;4.78;;;;;;;21.85;70.74;99707.77;;;;-55
2021/07/24 12:06:58;;;;;;;6.36;4.53;;;;;;;21.86;70.71;99700.57;;;;-52
2021/07/24 12:09:58;;;;;;;6.36;4.62;;;;;;;21.87;70.71;99704.04;;;;-58
2021/07/24 12:12:57;;;;;;;6.46;4.45;;;;;;;21.88;70.78;99704.84;;;;-53
2021/07/24 12:15:58;;;;;;;6.08;4.67;;;;;;;21.89;70.82;99703.86;;;;-56
2021/07/24 12:18:58;;;;;;;7.76;4.97;;;;;;;21.91;70.78;99701.62;;;;-51
2021/07/24 12:21:57;;;;;;;7.21;4.56;;;;;;;21.92;70.91;99703.97;;;;-41
2021/07/24 12:24:57;;;;;;;6.72;4.89;;;;;;;21.95;70.91;99702.63;;;;-63
2021/07/24 12:27:58;;;;;;;8.40;4.61;;;;;;;21.96;70.90;99703.11;;;;-42
2021/07/24 12:30:57;;;;;;;8.95;4.74;;;;;;;21.97;70.83;99705.52;;;;-50
2021/07/24 12:33:58;;;;;;;7.63;4.65;;;;;;;21.96;70.90;99696.82;;;;-50
2021/07/24 12:36:58;;;;;;;9.61;4.87;;;;;;;21.94;70.92;99689.33;;;;-52
2021/07/24 12:39:57;;;;;;;6.66;4.85;;;;;;;21.94;70.78;99687.20;;;;-51
2021/07/24 12:42:57;;;;;;;6.37;4.59;;;;;;;21.93;70.79;99686.32;;;;-60
2021/07/24 12:45:57;;;;;;;6.73;4.56;;;;;;;21.93;70.83;99686.48;;;;-51
2021/07/24 12:48:57;;;;;;;10.21;4.77;;;;;;;21.91;70.74;99688.06;;;;-51
2021/07/24 12:51:57;;;;;;;6.78;4.87;;;;;;;21.92;70.67;99679.19;;;;-52
2021/07/24 12:54:58;;;;;;;8.25;4.43;;;;;;;21.92;70.56;99684.58;;;;-58
2021/07/24 12:57:57;;;;;;;7.57;4.43;;;;;;;21.90;70.64;99687.04;;;;-51
2021/07/24 13:00:57;;;;;;;9.01;4.79;;;;;;;21.90;70.64;99681.00;;;;-51
2021/07/24 13:03:58;;;;;;;9.18;4.91;;;;;;;21.89;70.60;99677.58;;;;-60
2021/07/24 13:06:58;;;;;;;6.57;4.36;;;;;;;21.88;70.61;99678.41;;;;-58
2021/07/24 13:09:57;;;;;;;7.08;4.52;;;;;;;21.87;70.63;99688.06;;;;-60
2021/07/24 13:12:58;;;;;;;5.93;4.83;;;;;;;21.87;70.62;99685.12;;;;-52
2021/07/24 13:15:57;;;;;;;6.20;4.73;;;;;;;21.88;70.54;99689.77;;;;-51
2021/07/24 13:18:58;;;;;;;5.97;4.57;;;;;;;21.86;70.57;99688.16;;;;-58
2021/07/24 13:21:58;;;;;;;5.97;4.63;;;;;;;21.86;70.55;99691.81;;;;-59
2021/07/24 13:25:05;;;;;;;7.11;4.75;;;;;;;21.86;70.55;99697.69;;;;-58
2021/07/24 13:28:16;;;;;;;6.43;4.49;;;;;;;21.86;70.50;99711.83;;;;-57
2021/07/24 13:30:57;;;;;;;5.50;4.45;;;;;;;21.84;70.57;99716.32;;;;-60
2021/07/24 13:33:57;;;;;;;7.69;4.50;;;;;;;21.85;70.49;99722.36;;;;-50
2021/07/24 13:36:58;;;;;;;5.97;4.49;;;;;;;21.86;70.50;99729.13;;;;-59
2021/07/24 13:39:57;;;;;;;5.52;4.17;;;;;;;21.86;70.44;99727.98;;;;-52
2021/07/24 13:43:01;;;;;;;6.13;4.56;;;;;;;21.86;70.43;99723.16;;;;-58
2021/07/24 13:45:58;;;;;;;5.67;4.39;;;;;;;21.85;70.44;99726.52;;;;-51
2021/07/24 13:48:58;;;;;;;5.71;4.31;;;;;;;21.86;70.44;99736.13;;;;-50
2021/07/24 13:51:58;;;;;;;5.77;4.62;;;;;;;21.85;70.46;99728.80;;;;-50
2021/07/24 13:54:58;;;;;;;5.21;4.63;;;;;;;21.85;70.41;99735.23;;;;-50
2021/07/24 13:57:57;;;;;;;6.60;4.29;;;;;;;21.85;70.62;99749.20;;;;-51
2021/07/24 14:00:58;;;;;;;7.95;4.59;;;;;;;21.87;70.57;99749.48;;;;-62
2021/07/24 14:03:58;;;;;;;6.94;4.68;;;;;;;21.88;70.89;99748.91;;;;-50
2021/07/24 14:06:57;;;;;;;9.91;5.67;;;;;;;21.89;70.86;99745.68;;;;-50
2021/07/24 14:09:58;;;;;;;13.11;5.89;;;;;;;21.91;70.90;99752.36;;;;-51
2021/07/24 14:12:58;;;;;;;13.67;6.95;;;;;;;21.91;71.09;99749.56;;;;-53
2021/07/24 14:15:57;;;;;;;12.03;6.46;;;;;;;21.92;71.15;99756.11;;;;-52
2021/07/24 14:18:57;;;;;;;13.18;7.35;;;;;;;21.93;71.15;99750.03;;;;-57
2021/07/24 14:21:57;;;;;;;15.11;7.31;;;;;;;21.96;71.07;99751.24;;;;-52
2021/07/24 14:24:57;;;;;;;12.10;7.15;;;;;;;21.96;71.24;99743.90;;;;-62
2021/07/24 14:27:58;;;;;;;11.43;7.28;;;;;;;21.97;71.15;99747.19;;;;-60
2021/07/24 14:30:57;;;;;;;13.31;7.19;;;;;;;21.98;71.19;99742.80;;;;-53
2021/07/24 14:33:57;;;;;;;14.85;7.64;;;;;;;21.99;71.02;99729.86;;;;-62
2021/07/24 14:36:58;;;;;;;12.63;7.30;;;;;;;21.99;71.11;99726.60;;;;-50
2021/07/24 14:39:57;;;;;;;13.16;7.01;;;;;;;21.99;71.07;99718.13;;;;-53
2021/07/24 14:42:58;;;;;;;11.67;7.59;;;;;;;22.00;71.08;99714.14;;;;-51
2021/07/24 14:45:58;;;;;;;11.07;6.71;;;;;;;22.00;71.03;99710.61;;;;-57
2021/07/24 14:48:57;;;;;;;12.47;6.95;;;;;;;22.00;70.98;99709.14;;;;-52
2021/07/24 14:51:59;;;;;;;12.89;6.75;;;;;;;22.02;71.01;99711.73;;;;-54
2021/07/24 14:54:58;;;;;;;11.54;6.69;;;;;;;22.01;70.94;99703.81;;;;-53
2021/07/24 14:57:57;;;;;;;11.17;6.79;;;;;;;22.00;70.99;99699.20;;;;-54
2021/07/24 15:00:57;;;;;;;11.36;6.75;;;;;;;21.99;70.81;99694.70;;;;-53
2021/07/24 15:03:58;;;;;;;9.89;6.69;;;;;;;21.99;70.85;99687.45;;;;-53
2021/07/24 15:06:57;;;;;;;12.81;6.83;;;;;;;21.99;70.77;99681.08;;;;-53
2021/07/24 15:09:57;;;;;;;11.75;6.76;;;;;;;21.98;70.88;99680.31;;;;-53
2021/07/24 15:12:57;;;;;;;13.03;6.86;;;;;;;21.98;70.83;99686.77;;;;-53
2021/07/24 15:15:57;;;;;;;10.60;6.69;;;;;;;21.97;70.74;99683.31;;;;-53
2021/07/24 15:18:58;;;;;;;13.33;6.50;;;;;;;21.96;70.74;99682.21;;;;-53
2021/07/24 15:21:57;;;;;;;9.93;6.23;;;;;;;21.96;70.72;99682.61;;;;-53
2021/07/24 15:24:57;;;;;;;9.67;6.09;;;;;;;21.96;70.71;99677.48;;;;-53
2021/07/24 15:27:57;;;;;;;9.31;6.17;;;;;;;21.96;70.67;99664.35;;;;-53
2021/07/24 15:30:57;;;;;;;9.03;5.95;;;;;;;21.96;70.61;99671.69;;;;-53
2021/07/24 15:33:57;;;;;;;9.07;5.93;;;;;;;21.96;70.62;99677.17;;;;-53
2021/07/24 15:36:58;;;;;;;9.48;5.95;;;;;;;21.95;70.62;99672.91;;;;-53
2021/07/24 15:39:57;;;;;;;10.31;6.06;;;;;;;21.95;70.61;99678.55;;;;-53
2021/07/24 15:42:57;;;;;;;15.91;6.41;;;;;;;21.96;70.83;99671.95;;;;-51
2021/07/24 15:45:58;;;;;;;11.23;6.22;;;;;;;21.96;70.66;99681.73;;;;-51
2021/07/24 15:48:57;;;;;;;11.19;6.21;;;;;;;21.95;70.61;99696.41;;;;-49
2021/07/24 15:51:57;;;;;;;8.61;5.43;;;;;;;21.97;70.76;99711.89;;;;-50
2021/07/24 15:54:58;;;;;;;8.54;5.99;;;;;;;21.98;70.72;99695.64;;;;-47
2021/07/24 15:57:57;;;;;;;12.25;6.02;;;;;;;21.99;70.73;99695.13;;;;-46
2021/07/24 16:00:57;;;;;;;11.78;5.65;;;;;;;22.00;70.76;99692.34;;;;-52
2021/07/24 16:03:57;;;;;;;14.71;5.87;;;;;;;22.03;70.77;99685.12;;;;-51
2021/07/24 16:06:57;;;;;;;10.81;5.95;;;;;;;22.03;70.82;99670.16;;;;-49
2021/07/24 16:09:58;;;;;;;10.79;5.63;;;;;;;22.05;70.82;99667.14;;;;-53
2021/07/24 16:12:57;;;;;;;7.98;5.71;;;;;;;22.06;70.82;99673.95;;;;-49
2021/07/24 16:15:57;;;;;;;11.48;5.91;;;;;;;22.07;70.90;99677.88;;;;-62
2021/07/24 16:18:57;;;;;;;9.32;5.78;;;;;;;22.07;70.93;99672.23;;;;-51
2021/07/24 16:21:57;;;;;;;10.57;5.81;;;;;;;22.09;70.92;99662.56;;;;-50
2021/07/24 16:24:58;;;;;;;9.17;5.33;;;;;;;22.08;70.85;99650.67;;;;-60
2021/07/24 16:27:57;;;;;;;12.53;5.31;;;;;;;22.09;70.89;99654.88;;;;-52
2021/07/24 16:30:59;;;;;;;17.71;5.63;;;;;;;22.10;70.97;99654.16;;;;-55
2021/07/24 16:33:57;;;;;;;11.90;5.64;;;;;;;22.11;70.97;99653.88;;;;-56
2021/07/24 16:36:58;;;;;;;10.69;5.18;;;;;;;22.12;71.01;99645.14;;;;-52
2021/07/24 16:39:58;;;;;;;9.11;5.35;;;;;;;22.13;70.96;99640.95;;;;-54
2021/07/24 16:42:57;;;;;;;9.49;5.71;;;;;;;22.14;71.09;99642.33;;;;-59
2021/07/24 16:45:57;;;;;;;9.64;5.27;;;;;;;22.15;71.05;99642.46;;;;-61
2021/07/24 16:48:57;;;;;;;10.09;5.80;;;;;;;22.16;71.01;99658.02;;;;-56
2021/07/24 16:51:57;;;;;;;11.16;5.36;;;;;;;22.18;70.88;99670.72;;;;-61
2021/07/24 16:54:58;;;;;;;8.13;5.14;;;;;;;22.18;70.73;99667.06;;;;-51
2021/07/24 16:57:57;;;;;;;8.63;5.23;;;;;;;22.16;70.92;99672.16;;;;-52
2021/07/24 17:00:57;;;;;;;10.02;5.09;;;;;;;22.16;70.84;99673.20;;;;-57